createdAt,value
2023-04-16T00:00:42.810Z,99.5
2023-04-16T00:01:51.004Z,99.5
2023-04-16T00:02:59.186Z,99.5
2023-04-16T00:04:08.362Z,99.5
2023-04-16T00:05:16.561Z,99.5
2023-04-16T00:06:25.740Z,99.5
2023-04-16T00:07:33.921Z,99.5
2023-04-16T00:08:43.094Z,99.5
2023-04-16T00:09:52.271Z,99.5
2023-04-16T00:11:01.446Z,99.5
2023-04-16T00:12:10.603Z,99.5
2023-04-16T00:13:19.778Z,99.5
2023-04-16T00:14:28.965Z,99.5
2023-04-16T00:15:38.125Z,99.5
2023-04-16T00:16:47.302Z,99.5
2023-04-16T00:17:56.468Z,99.5
2023-04-16T00:19:05.646Z,99.5
2023-04-16T00:20:14.826Z,99.5
2023-04-16T00:21:23.986Z,99.5
2023-04-16T00:22:32.177Z,99.5
2023-04-16T00:23:41.359Z,99.5
2023-04-16T00:24:50.529Z,99.5
2023-04-16T00:25:59.696Z,99.5
2023-04-16T00:27:08.877Z,99.5
2023-04-16T00:28:18.051Z,99.5
2023-04-16T00:29:27.211Z,99.5
2023-04-16T00:30:36.386Z,99.5
2023-04-16T00:31:45.557Z,99.5
2023-04-16T00:32:54.734Z,99.5
2023-04-16T00:34:03.910Z,99.5
2023-04-16T00:35:13.069Z,99.5
2023-04-16T00:36:22.254Z,99.5
2023-04-16T00:37:30.438Z,99.5
2023-04-16T00:38:39.609Z,99.5
2023-04-16T00:39:48.778Z,99.5
2023-04-16T00:40:57.950Z,99.5
2023-04-16T00:42:07.131Z,99.5
2023-04-16T00:43:16.325Z,99.5
2023-04-16T00:44:25.466Z,99.5
2023-04-16T00:45:34.652Z,99.5
2023-04-16T00:46:43.822Z,99.5
2023-04-16T00:47:53.019Z,99.5
2023-04-16T00:49:02.154Z,99.5
2023-04-16T00:50:11.347Z,99.5
2023-04-16T00:51:20.510Z,99.5
2023-04-16T00:52:28.679Z,99.5
2023-04-16T00:53:37.866Z,99.5
2023-04-16T00:54:47.041Z,99.5
2023-04-16T00:55:56.204Z,99.5
2023-04-16T00:57:05.380Z,99.5
2023-04-16T00:58:14.557Z,99.5
2023-04-16T00:59:22.756Z,99.5
2023-04-16T01:00:31.933Z,99.5
2023-04-16T01:01:40.118Z,99.5
2023-04-16T01:02:49.281Z,99.5
2023-04-16T01:05:07.638Z,99.5
2023-04-16T01:06:16.799Z,99.5
2023-04-16T01:07:25.978Z,99.5
2023-04-16T01:08:35.157Z,99.5
2023-04-16T01:09:44.314Z,99.5
2023-04-16T01:10:53.513Z,99.5
2023-04-16T01:12:02.670Z,99.5
2023-04-16T01:13:10.856Z,99.5
2023-04-16T01:14:19.051Z,99.5
2023-04-16T01:15:28.352Z,99.5
2023-04-16T01:16:37.406Z,99.5
2023-04-16T01:17:46.560Z,99.5
2023-04-16T01:18:55.731Z,99.5
2023-04-16T01:20:04.911Z,99.5
2023-04-16T01:21:14.081Z,99.5
2023-04-16T01:22:23.256Z,99.5
2023-04-16T01:23:32.422Z,99.5
2023-04-16T01:24:41.614Z,99.5
2023-04-16T01:25:50.775Z,99.5
2023-04-16T01:26:59.942Z,99.5
2023-04-16T01:28:09.141Z,99.5
2023-04-16T01:29:17.309Z,99.5
2023-04-16T01:30:26.474Z,99.5
2023-04-16T01:31:35.664Z,99.5
2023-04-16T01:32:44.821Z,99.5
2023-04-16T01:33:53.997Z,99.5
2023-04-16T01:35:03.184Z,99.5
2023-04-16T01:36:12.347Z,99.5
2023-04-16T01:37:20.540Z,99.5
2023-04-16T01:38:28.725Z,99.5
2023-04-16T01:39:37.889Z,99.5
2023-04-16T01:40:47.069Z,99.5
2023-04-16T01:41:56.238Z,99.5
2023-04-16T01:43:05.462Z,99.5
2023-04-16T01:44:13.608Z,99.5
2023-04-16T01:45:21.800Z,99.5
2023-04-16T01:46:30.972Z,99.5
2023-04-16T01:47:40.139Z,99.5
2023-04-16T01:48:49.341Z,99.5
2023-04-16T01:49:58.486Z,99.5
2023-04-16T01:51:07.660Z,99.5
2023-04-16T01:52:16.831Z,99.5
2023-04-16T01:53:26.007Z,99.5
2023-04-16T01:54:35.176Z,99.5
2023-04-16T01:55:44.353Z,99.5
2023-04-16T01:56:53.529Z,99.5
2023-04-16T01:58:02.690Z,99.5
2023-04-16T02:00:21.039Z,99.5
2023-04-16T02:01:29.218Z,99.5
2023-04-16T02:02:38.392Z,99.5
2023-04-16T02:03:47.576Z,99.5
2023-04-16T02:04:56.801Z,99.5
2023-04-16T02:06:05.979Z,99.5
2023-04-16T02:07:15.134Z,99.5
2023-04-16T02:08:24.316Z,99.5
2023-04-16T02:09:32.499Z,99.5
2023-04-16T02:10:40.697Z,99.5
2023-04-16T02:11:49.872Z,99.5
2023-04-16T02:12:58.074Z,99.5
2023-04-16T02:14:06.238Z,99.5
2023-04-16T02:15:15.439Z,99.5
2023-04-16T02:16:24.595Z,99.5
2023-04-16T02:17:33.769Z,99.5
2023-04-16T02:18:42.944Z,99.5
2023-04-16T02:19:52.119Z,99.5
2023-04-16T02:21:01.287Z,99.5
2023-04-16T02:22:10.453Z,99.5
2023-04-16T02:23:19.630Z,99.5
2023-04-16T02:24:28.809Z,99.5
2023-04-16T02:25:37.976Z,99.5
2023-04-16T02:26:47.150Z,99.5
2023-04-16T02:27:56.323Z,99.5
2023-04-16T02:29:04.500Z,99.5
2023-04-16T02:30:13.697Z,99.5
2023-04-16T02:31:22.855Z,99.5
2023-04-16T02:32:32.013Z,99.5
2023-04-16T02:33:41.197Z,99.5
2023-04-16T02:34:50.359Z,99.5
2023-04-16T02:35:59.542Z,99.5
2023-04-16T02:37:07.734Z,99.5
2023-04-16T02:38:16.910Z,99.5
2023-04-16T02:39:25.098Z,99.5
2023-04-16T02:40:34.260Z,99.5
2023-04-16T02:41:42.474Z,99.5
2023-04-16T02:42:50.644Z,99.5
2023-04-16T02:43:59.817Z,99.5
2023-04-16T02:45:08.993Z,99.5
2023-04-16T02:46:18.182Z,99.5
2023-04-16T02:47:27.339Z,99.5
2023-04-16T02:48:36.509Z,99.5
2023-04-16T02:49:45.692Z,99.5
2023-04-16T02:50:54.865Z,99.5
2023-04-16T02:52:04.018Z,99.5
2023-04-16T02:53:13.200Z,99.5
2023-04-16T02:54:22.368Z,99.5
2023-04-16T02:55:31.542Z,99.5
2023-04-16T02:56:40.719Z,99.5
2023-04-16T02:57:48.923Z,99.5
2023-04-16T02:58:58.082Z,99.5
2023-04-16T03:00:07.262Z,99.5
2023-04-16T03:01:16.434Z,99.5
2023-04-16T03:02:25.609Z,99.5
2023-04-16T03:03:34.771Z,99.5
2023-04-16T03:04:43.952Z,99.5
2023-04-16T03:05:52.150Z,99.5
2023-04-16T03:07:00.330Z,99.5
2023-04-16T03:08:09.521Z,99.5
2023-04-16T03:09:18.668Z,99.5
2023-04-16T03:10:27.851Z,99.5
2023-04-16T03:11:37.020Z,99.5
2023-04-16T03:12:46.190Z,99.5
2023-04-16T03:13:55.363Z,99.5
2023-04-16T03:15:04.539Z,99.5
2023-04-16T03:16:13.701Z,99.5
2023-04-16T03:17:22.878Z,99.5
2023-04-16T03:18:32.050Z,99.5
2023-04-16T03:19:41.236Z,99.5
2023-04-16T03:20:50.415Z,99.5
2023-04-16T03:21:58.592Z,99.5
2023-04-16T03:23:07.756Z,99.5
2023-04-16T03:24:16.932Z,99.5
2023-04-16T03:25:26.095Z,99.5
2023-04-16T03:26:35.276Z,99.5
2023-04-16T03:27:44.451Z,99.5
2023-04-16T03:28:53.607Z,99.5
2023-04-16T03:30:01.815Z,99.5
2023-04-16T03:31:10.007Z,99.5
2023-04-16T03:32:19.175Z,99.5
2023-04-16T03:33:28.367Z,99.5
2023-04-16T03:34:37.516Z,99.5
2023-04-16T03:35:46.683Z,99.5
2023-04-16T03:36:55.857Z,99.5
2023-04-16T03:38:05.034Z,99.5
2023-04-16T03:39:14.204Z,99.5
2023-04-16T03:40:23.445Z,99.5
2023-04-16T03:41:32.548Z,99.5
2023-04-16T03:42:41.722Z,99.5
2023-04-16T03:43:50.897Z,99.5
2023-04-16T03:45:00.079Z,99.5
2023-04-16T03:46:08.256Z,99.5
2023-04-16T03:47:17.426Z,99.5
2023-04-16T03:48:26.608Z,99.5
2023-04-16T03:49:35.767Z,99.5
2023-04-16T03:50:44.945Z,99.5
2023-04-16T03:51:54.118Z,99.5
2023-04-16T03:53:03.293Z,99.5
2023-04-16T03:54:11.493Z,99.5
2023-04-16T03:55:19.675Z,99.5
2023-04-16T03:56:28.842Z,99.5
2023-04-16T03:58:46.202Z,99.5
2023-04-16T03:59:54.413Z,99.5
2023-04-16T04:01:02.608Z,99.5
2023-04-16T04:02:11.768Z,99.5
2023-04-16T04:04:29.160Z,99.5
2023-04-16T04:05:37.326Z,99.5
2023-04-16T04:06:45.520Z,99.5
2023-04-16T04:07:54.691Z,99.5
2023-04-16T04:09:03.851Z,99.5
2023-04-16T04:10:13.028Z,99.5
2023-04-16T04:11:22.199Z,99.5
2023-04-16T04:12:31.375Z,99.5
2023-04-16T04:13:40.566Z,99.5
2023-04-16T04:14:49.721Z,99.5
2023-04-16T04:15:58.902Z,99.5
2023-04-16T04:17:08.072Z,99.5
2023-04-16T04:18:17.238Z,99.5
2023-04-16T04:19:26.414Z,99.5
2023-04-16T04:20:35.586Z,99.5
2023-04-16T04:21:43.847Z,99.5
2023-04-16T04:22:52.950Z,99.5
2023-04-16T04:24:02.134Z,99.5
2023-04-16T04:26:20.469Z,99.5
2023-04-16T04:27:29.644Z,99.5
2023-04-16T04:28:38.818Z,99.5
2023-04-16T04:29:47.978Z,99.5
2023-04-16T04:30:57.373Z,99.5
2023-04-16T04:32:05.584Z,99.5
2023-04-16T04:33:13.774Z,99.5
2023-04-16T04:34:22.938Z,99.5
2023-04-16T04:35:31.119Z,99.5
2023-04-16T04:36:39.338Z,99.5
2023-04-16T04:37:48.490Z,99.5
2023-04-16T04:38:57.663Z,99.5
2023-04-16T04:40:06.834Z,99.5
2023-04-16T04:41:16.003Z,99.5
2023-04-16T04:42:25.190Z,99.5
2023-04-16T04:43:34.348Z,99.5
2023-04-16T04:44:43.539Z,99.5
2023-04-16T04:45:52.696Z,99.5
2023-04-16T04:47:01.867Z,99.5
2023-04-16T04:48:11.042Z,99.5
2023-04-16T04:49:20.209Z,99.5
2023-04-16T04:50:29.400Z,99.5
2023-04-16T04:51:37.571Z,99.5
2023-04-16T04:52:46.771Z,99.5
2023-04-16T04:53:55.908Z,99.5
2023-04-16T04:55:05.101Z,99.5
2023-04-16T04:56:14.261Z,99.5
2023-04-16T04:57:23.435Z,99.5
2023-04-16T04:58:32.606Z,99.5
2023-04-16T05:00:50.007Z,99.5
2023-04-16T05:01:58.175Z,99.5
2023-04-16T05:03:06.362Z,99.5
2023-04-16T05:05:24.721Z,99.5
2023-04-16T05:06:32.889Z,99.5
2023-04-16T05:07:41.120Z,99.5
2023-04-16T05:08:50.265Z,99.5
2023-04-16T05:09:59.475Z,99.5
2023-04-16T05:11:08.604Z,99.5
2023-04-16T05:12:17.782Z,99.5
2023-04-16T05:13:26.956Z,99.5
2023-04-16T05:14:36.116Z,99.5
2023-04-16T05:15:45.331Z,99.5
2023-04-16T05:18:03.637Z,99.5
2023-04-16T05:19:12.812Z,99.5
2023-04-16T05:20:21.984Z,99.5
2023-04-16T05:21:31.159Z,99.5
2023-04-16T05:23:48.519Z,99.5
2023-04-16T05:24:56.726Z,99.5
2023-04-16T05:26:04.894Z,99.5
2023-04-16T05:27:14.090Z,99.5
2023-04-16T05:28:23.255Z,99.5
2023-04-16T05:29:32.423Z,99.5
2023-04-16T05:30:41.599Z,99.5
2023-04-16T05:31:50.768Z,99.5
2023-04-16T05:32:59.935Z,99.5
2023-04-16T05:34:09.104Z,99.5
2023-04-16T05:35:18.282Z,99.5
2023-04-16T05:36:27.455Z,99.5
2023-04-16T05:37:35.648Z,99.5
2023-04-16T05:38:43.844Z,99.5
2023-04-16T05:39:53.022Z,99.5
2023-04-16T05:41:02.184Z,99.5
2023-04-16T05:42:11.367Z,99.5
2023-04-16T05:43:20.531Z,99.5
2023-04-16T05:44:29.698Z,99.5
2023-04-16T05:45:38.865Z,99.5
2023-04-16T05:46:48.036Z,99.5
2023-04-16T05:47:57.216Z,99.5
2023-04-16T05:49:06.380Z,99.5
2023-04-16T05:50:15.557Z,99.5
2023-04-16T05:51:24.739Z,99.5
2023-04-16T05:52:33.896Z,99.5
2023-04-16T05:53:42.095Z,99.5
2023-04-16T05:54:51.260Z,99.5
2023-04-16T05:56:00.442Z,99.5
2023-04-16T05:57:09.608Z,99.5
2023-04-16T05:58:18.774Z,99.5
2023-04-16T05:59:27.950Z,99.5
2023-04-16T06:00:37.150Z,99.5
2023-04-16T06:02:54.501Z,99.5
2023-04-16T06:04:02.680Z,99.5
2023-04-16T06:05:11.859Z,99.5
2023-04-16T06:06:21.029Z,99.5
2023-04-16T06:07:30.289Z,99.5
2023-04-16T06:09:47.575Z,99.5
2023-04-16T06:10:55.789Z,99.5
2023-04-16T06:12:03.969Z,99.5
2023-04-16T06:13:12.158Z,99.5
2023-04-16T06:14:21.319Z,99.5
2023-04-16T06:15:30.492Z,99.5
2023-04-16T06:16:38.682Z,99.5
2023-04-16T06:17:47.856Z,99.5
2023-04-16T06:18:57.048Z,99.5
2023-04-16T06:20:06.199Z,99.5
2023-04-16T06:21:15.370Z,99.5
2023-04-16T06:22:24.544Z,99.5
2023-04-16T06:23:33.736Z,99.5
2023-04-16T06:24:42.889Z,99.5
2023-04-16T06:25:52.070Z,99.5
2023-04-16T06:27:01.239Z,99.5
2023-04-16T06:28:10.405Z,99.5
2023-04-16T06:29:19.587Z,99.5
2023-04-16T06:30:28.752Z,99.5
2023-04-16T06:31:36.939Z,99.5
2023-04-16T06:32:46.104Z,99.5
2023-04-16T06:33:55.287Z,99.5
2023-04-16T06:35:04.457Z,99.5
2023-04-16T06:36:13.625Z,99.5
2023-04-16T06:37:21.825Z,99.5
2023-04-16T06:38:30.041Z,99.5
2023-04-16T06:39:38.220Z,99.5
2023-04-16T06:40:46.393Z,99.5
2023-04-16T06:41:55.568Z,99.5
2023-04-16T06:43:04.750Z,99.5
2023-04-16T06:44:13.916Z,99.5
2023-04-16T06:45:23.099Z,99.5
2023-04-16T06:46:32.256Z,99.5
2023-04-16T06:47:41.420Z,99.5
2023-04-16T06:48:50.609Z,99.5
2023-04-16T06:49:59.770Z,99.5
2023-04-16T06:51:08.954Z,99.5
2023-04-16T06:52:18.123Z,99.5
2023-04-16T06:53:27.291Z,99.5
2023-04-16T06:54:36.467Z,99.5
2023-04-16T06:55:44.670Z,99.5
2023-04-16T06:56:53.824Z,99.5
2023-04-16T06:58:03.041Z,99.5
2023-04-16T06:59:12.168Z,99.5
2023-04-16T07:00:21.361Z,99.5
2023-04-16T07:01:30.520Z,99.5
2023-04-16T07:02:39.695Z,99.5
2023-04-16T07:03:48.904Z,99.5
2023-04-16T07:04:57.058Z,99.5
2023-04-16T07:06:05.233Z,99.5
2023-04-16T07:07:14.413Z,99.5
2023-04-16T07:08:22.636Z,99.5
2023-04-16T07:09:30.800Z,99.5
2023-04-16T07:10:39.971Z,99.5
2023-04-16T07:11:49.149Z,99.5
2023-04-16T07:12:58.309Z,99.5
2023-04-16T07:14:07.499Z,99.5
2023-04-16T07:15:16.692Z,99.5
2023-04-16T07:16:25.842Z,99.5
2023-04-16T07:17:35.007Z,99.5
2023-04-16T07:18:44.181Z,99.5
2023-04-16T07:19:53.357Z,99.5
2023-04-16T07:22:11.700Z,99.5
2023-04-16T07:23:20.868Z,99.5
2023-04-16T07:24:29.103Z,99.5
2023-04-16T07:25:38.250Z,99.5
2023-04-16T07:26:47.412Z,99
2023-04-16T07:27:56.691Z,99.5
2023-04-16T07:29:05.759Z,99.5
2023-04-16T07:30:14.975Z,99.5
2023-04-16T07:31:24.101Z,99.5
2023-04-16T07:32:33.268Z,99.5
2023-04-16T07:33:41.469Z,99.5
2023-04-16T07:34:49.643Z,99.5
2023-04-16T07:35:58.839Z,99.5
2023-04-16T07:37:07.076Z,99.5
2023-04-16T07:38:15.197Z,99
2023-04-16T07:39:24.384Z,99.5
2023-04-16T07:40:33.541Z,99
2023-04-16T07:41:42.722Z,98.5
2023-04-16T07:42:51.901Z,98
2023-04-16T07:44:01.102Z,98.5
2023-04-16T07:45:10.237Z,99
2023-04-16T07:46:19.416Z,98.5
2023-04-16T07:47:28.581Z,99
2023-04-16T07:48:37.753Z,98.5
2023-04-16T07:49:46.994Z,99.5
2023-04-16T07:50:56.098Z,98.5
2023-04-16T07:52:05.298Z,97.5
2023-04-16T07:53:13.458Z,97.5
2023-04-16T07:54:22.636Z,97.5
2023-04-16T07:55:31.859Z,98
2023-04-16T07:56:40.976Z,98
2023-04-16T07:57:50.157Z,98
2023-04-16T07:58:59.324Z,98
2023-04-16T08:00:08.508Z,96.5
2023-04-16T08:01:16.700Z,97.5
2023-04-16T08:02:24.884Z,98
2023-04-16T08:03:33.086Z,98
2023-04-16T08:04:41.255Z,97
2023-04-16T08:05:50.430Z,96.5
2023-04-16T08:06:59.624Z,96
2023-04-16T08:08:08.787Z,97
2023-04-16T08:09:17.973Z,96
2023-04-16T08:10:27.139Z,96
2023-04-16T08:11:36.288Z,95
2023-04-16T08:12:45.528Z,96
2023-04-16T08:13:54.646Z,95
2023-04-16T08:15:03.817Z,95.5
2023-04-16T08:16:12.988Z,95
2023-04-16T08:17:22.175Z,95.5
2023-04-16T08:19:40.496Z,95.5
2023-04-16T08:20:48.695Z,95.5
2023-04-16T08:21:57.918Z,95
2023-04-16T08:23:07.041Z,95
2023-04-16T08:24:16.207Z,96
2023-04-16T08:25:25.384Z,95.5
2023-04-16T08:26:34.548Z,96.5
2023-04-16T08:27:43.730Z,96
2023-04-16T08:28:51.925Z,96
2023-04-16T08:30:00.107Z,95.5
2023-04-16T08:31:09.290Z,95.5
2023-04-16T08:32:18.454Z,95.5
2023-04-16T08:33:26.667Z,95.5
2023-04-16T08:34:34.835Z,95
2023-04-16T08:35:44.009Z,95.5
2023-04-16T08:36:53.217Z,96
2023-04-16T08:38:02.356Z,95.5
2023-04-16T08:40:20.685Z,94.5
2023-04-16T08:41:29.911Z,95.5
2023-04-16T08:42:39.051Z,95
2023-04-16T08:43:48.219Z,93.5
2023-04-16T08:44:57.412Z,92.5
2023-04-16T08:46:06.562Z,94
2023-04-16T08:47:15.800Z,94.5
2023-04-16T08:48:24.920Z,93.5
2023-04-16T08:49:33.165Z,93.5
2023-04-16T08:50:42.260Z,93.5
2023-04-16T08:51:51.432Z,92.5
2023-04-16T08:53:00.683Z,93
2023-04-16T08:54:09.783Z,92
2023-04-16T08:55:18.958Z,92.5
2023-04-16T08:56:28.142Z,91.5
2023-04-16T08:57:37.298Z,90
2023-04-16T08:58:46.465Z,90
2023-04-16T09:01:03.833Z,91
2023-04-16T09:02:12.027Z,89.5
2023-04-16T09:03:20.223Z,90.5
2023-04-16T09:04:29.423Z,89.5
2023-04-16T09:05:38.570Z,91
2023-04-16T09:06:46.779Z,88.5
2023-04-16T09:07:54.940Z,91.5
2023-04-16T09:09:04.125Z,90.5
2023-04-16T09:10:13.308Z,90.5
2023-04-16T09:11:22.467Z,90.5
2023-04-16T09:12:31.632Z,90.5
2023-04-16T09:13:40.804Z,92
2023-04-16T09:14:49.980Z,90
2023-04-16T09:15:59.163Z,90
2023-04-16T09:17:08.332Z,89
2023-04-16T09:18:17.500Z,91
2023-04-16T09:19:26.679Z,90.5
2023-04-16T09:20:35.841Z,90.5
2023-04-16T09:21:45.015Z,89.5
2023-04-16T09:22:53.235Z,90
2023-04-16T09:24:02.417Z,88.5
2023-04-16T09:25:11.560Z,89
2023-04-16T09:26:20.760Z,89.5
2023-04-16T09:27:29.904Z,89
2023-04-16T09:28:39.082Z,90.5
2023-04-16T09:29:48.246Z,90.5
2023-04-16T09:30:56.429Z,88.5
2023-04-16T09:32:04.627Z,87.5
2023-04-16T09:33:13.805Z,89
2023-04-16T09:34:22.005Z,88.5
2023-04-16T09:36:39.360Z,88
2023-04-16T09:37:48.532Z,87
2023-04-16T09:38:57.691Z,86
2023-04-16T09:40:06.872Z,87
2023-04-16T09:41:16.052Z,87.5
2023-04-16T09:42:25.217Z,88
2023-04-16T09:43:34.400Z,87
2023-04-16T09:44:43.565Z,86.5
2023-04-16T09:45:52.830Z,87
2023-04-16T09:47:01.915Z,87.5
2023-04-16T09:48:11.073Z,88
2023-04-16T09:49:20.283Z,88
2023-04-16T09:50:28.437Z,86.5
2023-04-16T09:51:37.618Z,87
2023-04-16T09:52:46.785Z,86
2023-04-16T09:53:55.950Z,87.5
2023-04-16T09:55:04.155Z,86
2023-04-16T09:56:13.329Z,87
2023-04-16T09:57:22.489Z,86
2023-04-16T09:58:31.662Z,84.5
2023-04-16T09:59:39.905Z,87
2023-04-16T10:00:48.098Z,85
2023-04-16T10:01:57.224Z,86.5
2023-04-16T10:03:06.432Z,84.5
2023-04-16T10:04:15.562Z,83.5
2023-04-16T10:05:24.723Z,84
2023-04-16T10:06:32.926Z,83.5
2023-04-16T10:07:41.126Z,82.5
2023-04-16T10:08:50.291Z,83.5
2023-04-16T10:09:59.447Z,84.5
2023-04-16T10:11:08.632Z,83.5
2023-04-16T10:12:17.822Z,82
2023-04-16T10:13:27.040Z,82.5
2023-04-16T10:14:36.148Z,82.5
2023-04-16T10:15:45.318Z,82.5
2023-04-16T10:16:54.496Z,81
2023-04-16T10:18:03.668Z,83.5
2023-04-16T10:19:12.837Z,81
2023-04-16T10:20:22.010Z,81.5
2023-04-16T10:21:31.186Z,81.5
2023-04-16T10:22:39.369Z,82
2023-04-16T10:23:48.542Z,81
2023-04-16T10:24:57.708Z,80.5
2023-04-16T10:26:06.887Z,81.5
2023-04-16T10:27:16.063Z,82
2023-04-16T10:28:25.237Z,80
2023-04-16T10:29:34.412Z,80
2023-04-16T10:30:42.605Z,80.5
2023-04-16T10:31:51.758Z,79
2023-04-16T10:32:59.964Z,80.5
2023-04-16T10:34:08.149Z,79
2023-04-16T10:35:17.317Z,80
2023-04-16T10:36:26.486Z,80
2023-04-16T10:38:45.018Z,79
2023-04-16T10:39:54.133Z,78.5
2023-04-16T10:41:03.342Z,80.5
2023-04-16T10:42:12.539Z,79.5
2023-04-16T10:43:21.572Z,77
2023-04-16T10:44:30.700Z,77.5
2023-04-16T10:45:39.877Z,78.5
2023-04-16T10:46:49.058Z,79
2023-04-16T10:47:58.235Z,79
2023-04-16T10:49:06.415Z,76.5
2023-04-16T10:50:15.568Z,77.5
2023-04-16T10:51:24.783Z,77.5
2023-04-16T10:52:33.950Z,76.5
2023-04-16T10:53:43.097Z,77
2023-04-16T10:54:52.330Z,77.5
2023-04-16T10:56:01.447Z,77.5
2023-04-16T10:57:10.613Z,77.5
2023-04-16T10:58:18.807Z,75.5
2023-04-16T10:59:27.997Z,78
2023-04-16T11:00:36.158Z,76
2023-04-16T11:01:45.397Z,75
2023-04-16T11:02:54.582Z,75.5
2023-04-16T11:04:03.693Z,76.5
2023-04-16T11:05:12.880Z,77.5
2023-04-16T11:06:22.045Z,76
2023-04-16T11:07:31.279Z,76
2023-04-16T11:08:40.365Z,76.5
2023-04-16T11:09:49.534Z,76
2023-04-16T11:10:58.717Z,75
2023-04-16T11:12:07.883Z,75.5
2023-04-16T11:13:17.050Z,77.5
2023-04-16T11:14:26.230Z,76.5
2023-04-16T11:15:34.477Z,77.5
2023-04-16T11:16:43.592Z,75.5
2023-04-16T11:17:52.766Z,76.5
2023-04-16T11:19:01.962Z,76.5
2023-04-16T11:20:11.102Z,77
2023-04-16T11:21:20.339Z,77.5
2023-04-16T11:22:28.470Z,78
2023-04-16T11:23:36.663Z,77.5
2023-04-16T11:24:44.851Z,78.5
2023-04-16T11:25:53.045Z,79
2023-04-16T11:27:02.227Z,78
2023-04-16T11:28:11.394Z,78.5
2023-04-16T11:29:20.559Z,76.5
2023-04-16T11:30:28.760Z,75.5
2023-04-16T11:31:36.940Z,76
2023-04-16T11:32:46.292Z,75.5
2023-04-16T11:33:55.288Z,75.5
2023-04-16T11:35:04.477Z,75.5
2023-04-16T11:36:13.632Z,77.5
2023-04-16T11:37:22.797Z,75.5
2023-04-16T11:38:31.969Z,75.5
2023-04-16T11:39:41.142Z,75.5
2023-04-16T11:40:50.315Z,76
2023-04-16T11:41:59.493Z,78
2023-04-16T11:43:08.686Z,76
2023-04-16T11:44:17.834Z,75
2023-04-16T11:45:27.002Z,76
2023-04-16T11:46:35.190Z,75
2023-04-16T11:47:44.364Z,75.5
2023-04-16T11:48:53.532Z,77
2023-04-16T11:50:02.726Z,77.5
2023-04-16T11:51:11.891Z,77.5
2023-04-16T11:52:21.058Z,79
2023-04-16T11:53:30.238Z,78.5
2023-04-16T11:54:38.421Z,79.5
2023-04-16T11:55:46.621Z,80
2023-04-16T11:56:55.791Z,78.5
2023-04-16T11:58:04.966Z,79.5
2023-04-16T11:59:14.145Z,78.5
2023-04-16T12:00:23.303Z,78.5
2023-04-16T12:01:32.472Z,79.5
2023-04-16T12:02:41.696Z,79
2023-04-16T12:03:50.829Z,79
2023-04-16T12:04:59.986Z,79.5
2023-04-16T12:06:09.161Z,78
2023-04-16T12:07:18.329Z,79
2023-04-16T12:08:27.507Z,79.5
2023-04-16T12:09:36.688Z,78.5
2023-04-16T12:10:44.871Z,78
2023-04-16T12:11:54.038Z,79.5
2023-04-16T12:13:03.335Z,79.5
2023-04-16T12:14:12.381Z,80.5
2023-04-16T12:15:21.571Z,80.5
2023-04-16T12:16:30.718Z,80
2023-04-16T12:17:39.911Z,79.5
2023-04-16T12:18:48.084Z,79
2023-04-16T12:19:56.282Z,80
2023-04-16T12:21:04.464Z,81
2023-04-16T12:22:12.672Z,81
2023-04-16T12:23:20.872Z,79.5
2023-04-16T12:24:29.067Z,80.5
2023-04-16T12:25:38.213Z,80.5
2023-04-16T12:26:47.375Z,80
2023-04-16T12:27:56.550Z,80.5
2023-04-16T12:29:05.717Z,80.5
2023-04-16T12:30:14.890Z,80.5
2023-04-16T12:31:24.090Z,81.5
2023-04-16T12:32:33.240Z,80
2023-04-16T12:33:42.410Z,80.5
2023-04-16T12:34:51.581Z,79
2023-04-16T12:36:00.759Z,81
2023-04-16T12:37:09.941Z,81
2023-04-16T12:38:19.124Z,80
2023-04-16T12:39:27.297Z,80
2023-04-16T12:40:36.469Z,81
2023-04-16T12:41:45.709Z,78.5
2023-04-16T12:42:54.873Z,79.5
2023-04-16T12:44:03.970Z,80
2023-04-16T12:45:13.156Z,78.5
2023-04-16T12:46:22.317Z,79.5
2023-04-16T12:47:30.511Z,78
2023-04-16T12:48:39.678Z,78.5
2023-04-16T12:49:47.873Z,80
2023-04-16T12:50:56.098Z,78.5
2023-04-16T12:53:13.462Z,79.5
2023-04-16T12:54:22.591Z,79.5
2023-04-16T12:55:31.770Z,80
2023-04-16T12:56:40.977Z,79.5
2023-04-16T12:57:50.171Z,80
2023-04-16T12:58:59.327Z,81
2023-04-16T13:00:08.463Z,80.5
2023-04-16T13:01:17.627Z,81
2023-04-16T13:02:26.806Z,80.5
2023-04-16T13:03:35.966Z,81
2023-04-16T13:04:45.141Z,80.5
2023-04-16T13:05:54.321Z,80.5
2023-04-16T13:07:02.515Z,81
2023-04-16T13:08:11.680Z,81
2023-04-16T13:09:20.848Z,81
2023-04-16T13:10:30.041Z,81.5
2023-04-16T13:11:39.197Z,81.5
2023-04-16T13:12:48.436Z,81
2023-04-16T13:13:57.534Z,80
2023-04-16T13:15:06.711Z,80.5
2023-04-16T13:16:14.901Z,80.5
2023-04-16T13:17:23.101Z,80.5
2023-04-16T13:18:31.299Z,79.5
2023-04-16T13:19:39.717Z,80
2023-04-16T13:20:48.723Z,79.5
2023-04-16T13:21:56.884Z,80
2023-04-16T13:23:05.077Z,80
2023-04-16T13:24:14.199Z,79.5
2023-04-16T13:25:23.405Z,81
2023-04-16T13:26:32.546Z,79
2023-04-16T13:27:41.715Z,80.5
2023-04-16T13:28:50.942Z,79.5
2023-04-16T13:30:00.072Z,81
2023-04-16T13:31:09.230Z,81
2023-04-16T13:32:18.407Z,80.5
2023-04-16T13:33:27.576Z,80.5
2023-04-16T13:34:36.821Z,80.5
2023-04-16T13:35:46.075Z,80
2023-04-16T13:36:55.230Z,80
2023-04-16T13:38:03.364Z,80
2023-04-16T13:39:12.472Z,79.5
2023-04-16T13:40:21.636Z,79.5
2023-04-16T13:41:30.797Z,80.5
2023-04-16T13:42:39.963Z,80.5
2023-04-16T13:43:49.132Z,80
2023-04-16T13:44:58.303Z,79.5
2023-04-16T13:46:06.589Z,80.5
2023-04-16T13:47:14.728Z,81
2023-04-16T13:48:23.925Z,78.5
2023-04-16T13:49:32.071Z,80
2023-04-16T13:50:40.278Z,80
2023-04-16T13:51:49.449Z,80
2023-04-16T13:52:58.642Z,80.5
2023-04-16T13:54:07.784Z,80
2023-04-16T13:55:16.948Z,80
2023-04-16T13:56:26.154Z,79
2023-04-16T13:57:35.327Z,79
2023-04-16T13:58:44.448Z,80.5
2023-04-16T13:59:53.631Z,80
2023-04-16T14:01:02.808Z,78
2023-04-16T14:02:11.978Z,80
2023-04-16T14:03:21.201Z,80.5
2023-04-16T14:04:30.349Z,78
2023-04-16T14:05:38.537Z,79.5
2023-04-16T14:06:47.685Z,79
2023-04-16T14:07:56.871Z,77.5
2023-04-16T14:09:06.026Z,77
2023-04-16T14:10:15.201Z,77.5
2023-04-16T14:11:24.375Z,78
2023-04-16T14:12:33.552Z,77
2023-04-16T14:13:42.709Z,76.5
2023-04-16T14:14:51.893Z,78
2023-04-16T14:16:01.059Z,78.5
2023-04-16T14:17:09.245Z,78
2023-04-16T14:18:17.437Z,78
2023-04-16T14:19:25.637Z,77.5
2023-04-16T14:20:33.823Z,77
2023-04-16T14:21:42.999Z,77.5
2023-04-16T14:22:52.171Z,78
2023-04-16T14:24:01.337Z,77.5
2023-04-16T14:25:10.509Z,77.5
2023-04-16T14:26:19.695Z,78
2023-04-16T14:27:28.907Z,78.5
2023-04-16T14:28:38.034Z,78.5
2023-04-16T14:29:47.216Z,77
2023-04-16T14:30:56.371Z,77.5
2023-04-16T14:32:05.536Z,77
2023-04-16T14:33:14.755Z,77
2023-04-16T14:34:23.924Z,77.5
2023-04-16T14:36:41.255Z,77.5
2023-04-16T14:37:50.449Z,78
2023-04-16T14:38:59.580Z,77
2023-04-16T14:40:08.820Z,77
2023-04-16T14:41:17.993Z,77.5
2023-04-16T14:42:27.107Z,76.5
2023-04-16T14:43:36.294Z,76.5
2023-04-16T14:44:44.468Z,76
2023-04-16T14:45:52.676Z,76.5
2023-04-16T14:47:01.821Z,76.5
2023-04-16T14:48:11.009Z,76.5
2023-04-16T14:49:20.176Z,77
2023-04-16T14:50:28.382Z,77
2023-04-16T14:51:36.557Z,77.5
2023-04-16T14:52:45.732Z,78.5
2023-04-16T14:53:54.909Z,77
2023-04-16T14:55:04.080Z,77
2023-04-16T14:56:13.264Z,77
2023-04-16T14:57:22.416Z,77.5
2023-04-16T14:58:31.587Z,76.5
2023-04-16T14:59:40.756Z,78.5
2023-04-16T15:00:49.925Z,78
2023-04-16T15:01:59.096Z,76.5
2023-04-16T15:03:08.287Z,77
2023-04-16T15:04:17.447Z,76.5
2023-04-16T15:05:26.631Z,77
2023-04-16T15:06:34.817Z,77
2023-04-16T15:07:43.970Z,76.5
2023-04-16T15:08:53.152Z,77
2023-04-16T15:10:02.348Z,76.5
2023-04-16T15:12:20.667Z,76
2023-04-16T15:13:29.837Z,76.5
2023-04-16T15:14:39.113Z,77.5
2023-04-16T15:15:47.213Z,75
2023-04-16T15:16:55.415Z,75.5
2023-04-16T15:18:04.657Z,75.5
2023-04-16T15:19:12.762Z,75.5
2023-04-16T15:20:20.964Z,74
2023-04-16T15:21:30.175Z,75
2023-04-16T15:22:39.327Z,74
2023-04-16T15:23:48.463Z,73
2023-04-16T15:24:57.662Z,74
2023-04-16T15:26:06.806Z,75
2023-04-16T15:27:16.027Z,74
2023-04-16T15:28:25.236Z,74.5
2023-04-16T15:29:34.322Z,74.5
2023-04-16T15:30:43.501Z,74.5
2023-04-16T15:31:52.688Z,75
2023-04-16T15:34:11.021Z,75.5
2023-04-16T15:35:19.210Z,75
2023-04-16T15:36:28.391Z,75.5
2023-04-16T15:37:37.560Z,75.5
2023-04-16T15:38:46.751Z,74
2023-04-16T15:39:55.881Z,74.5
2023-04-16T15:41:05.116Z,75.5
2023-04-16T15:42:14.329Z,75
2023-04-16T15:44:32.570Z,76
2023-04-16T15:45:41.769Z,75.5
2023-04-16T15:46:50.933Z,76
2023-04-16T15:47:59.115Z,76
2023-04-16T15:49:08.293Z,76.5
2023-04-16T15:50:16.485Z,74.5
2023-04-16T15:51:24.668Z,74.5
2023-04-16T15:52:33.833Z,76.5
2023-04-16T15:53:43.019Z,76
2023-04-16T15:54:52.193Z,74.5
2023-04-16T15:56:01.359Z,74.5
2023-04-16T15:57:10.601Z,75.5
2023-04-16T15:58:19.718Z,75.5